Time;durP1;ratioP1;P1;durP2;ratioP2;P2;SDS_P1;SDS_P2;PMS_P1;PMS_P2;Temp;Humidity;BMP_temperature;BMP_pressure;BME280_temperature;BME280_humidity;BME280_pressure;Samples;Min_cycle;Max_cycle;Signal;HPM_P1;HPM_P2
2020/12/28 00:02:12;;;;;;;2.73;2.53;;;3.40;99.90;;;;;;4982257;28;20234;-84
2020/12/28 00:04:39;;;;;;;4.35;2.88;;;3.40;99.90;;;;;;4982258;28;20197;-84
2020/12/28 00:07:06;;;;;;;2.70;2.50;;;3.40;99.90;;;;;;4992382;28;20227;-84
2020/12/28 00:09:33;;;;;;;2.87;2.43;;;3.40;99.90;;;;;;5001157;28;20247;-84
2020/12/28 00:12:00;;;;;;;3.20;2.90;;;3.40;99.90;;;;;;4981518;28;20225;-84
2020/12/28 00:14:27;;;;;;;2.30;2.20;;;3.50;99.90;;;;;;5001637;28;20193;-84
2020/12/28 00:16:55;;;;;;;2.50;2.30;;;3.50;99.90;;;;;;5000532;28;20955;-84
2020/12/28 00:19:22;;;;;;;2.47;2.27;;;3.50;99.90;;;;;;4998858;28;20206;-84
2020/12/28 00:21:48;;;;;;;2.20;2.10;;;3.50;99.90;;;;;;5008603;28;20221;-83
2020/12/28 00:24:15;;;;;;;2.10;2.00;;;3.50;99.90;;;;;;4998207;28;20193;-85
2020/12/28 00:26:43;;;;;;;1.77;1.67;;;3.50;99.90;;;;;;5015353;28;20181;-84
2020/12/28 00:29:13;;;;;;;2.57;2.37;;;3.50;99.90;;;;;;5000934;28;20206;-85
2020/12/28 00:31:40;;;;;;;2.10;1.90;;;3.50;99.90;;;;;;4997160;28;20197;-85
2020/12/28 00:34:08;;;;;;;2.13;1.97;;;3.50;99.90;;;;;;5000602;28;20196;-84
2020/12/28 00:36:34;;;;;;;2.00;1.90;;;3.60;99.90;;;;;;5000749;28;20213;-84
2020/12/28 00:39:01;;;;;;;1.83;1.73;;;3.60;99.90;;;;;;4998507;28;20216;-85
2020/12/28 00:41:28;;;;;;;2.00;1.90;;;3.50;99.90;;;;;;4997838;28;20240;-83
2020/12/28 00:43:54;;;;;;;2.10;1.90;;;3.60;99.90;;;;;;4999039;28;20669;-84
2020/12/28 00:46:23;;;;;;;1.73;1.63;;;3.60;99.90;;;;;;5000809;28;20224;-85
2020/12/28 00:48:50;;;;;;;1.60;1.50;;;3.60;99.90;;;;;;4977058;28;20197;-84
2020/12/28 00:51:17;;;;;;;1.57;1.47;;;3.60;99.90;;;;;;4975413;28;20717;-84
2020/12/28 00:53:44;;;;;;;1.73;1.60;;;3.60;99.90;;;;;;4977374;28;20193;-84
2020/12/28 00:56:13;;;;;;;2.50;1.87;;;3.90;99.90;;;;;;4978741;28;20197;-84
2020/12/28 00:58:40;;;;;;;1.63;1.53;;;3.60;99.90;;;;;;4994844;28;20198;-84
2020/12/28 01:01:08;;;;;;;1.63;1.53;;;3.60;99.90;;;;;;4993562;28;20229;-84
2020/12/28 01:03:35;;;;;;;1.47;1.43;;;3.70;99.90;;;;;;4993445;28;20228;-84
2020/12/28 01:06:25;;;;;;;1.40;1.33;;;3.70;99.90;;;;;;4986079;28;20217;-83
2020/12/28 01:09:15;;;;;;;2.17;2.07;;;3.60;99.90;;;;;;5001500;28;20252;-84
2020/12/28 01:11:42;;;;;;;1.70;1.60;;;3.60;99.90;;;;;;4980040;28;20709;-83
2020/12/28 01:14:11;;;;;;;1.33;1.30;;;3.70;99.90;;;;;;4985075;28;20197;-84
2020/12/28 01:16:38;;;;;;;1.13;1.10;;;3.70;99.90;;;;;;4994897;28;20206;-83
2020/12/28 01:19:05;;;;;;;1.20;1.10;;;3.70;99.90;;;;;;4986679;28;20204;-84
2020/12/28 01:21:37;;;;;;;1.43;1.37;;;3.70;99.90;;;;;;4980298;28;20249;-84
2020/12/28 01:24:03;;;;;;;1.00;1.00;;;3.70;99.90;;;;;;4999747;28;20229;-84
2020/12/28 01:26:32;;;;;;;1.47;1.37;;;3.70;99.90;;;;;;4979161;28;20212;-84
2020/12/28 01:29:01;;;;;;;1.40;1.30;;;3.70;99.90;;;;;;4991814;28;20221;-84
2020/12/28 01:31:32;;;;;;;1.20;1.20;;;3.90;99.90;;;;;;4995324;28;20228;-85
2020/12/28 01:34:05;;;;;;;0.90;0.90;;;3.60;99.90;;;;;;4995919;28;20212;-84
2020/12/28 01:36:46;;;;;;;0.90;0.90;;;3.70;99.90;;;;;;4974726;28;20204;-84
2020/12/28 01:39:21;;;;;;;1.20;1.10;;;3.80;99.90;;;;;;4979525;28;20634;-84
2020/12/28 01:41:50;;;;;;;1.13;1.10;;;3.80;99.90;;;;;;4995589;28;20345;-84
2020/12/28 01:44:17;;;;;;;1.63;1.10;;;3.70;99.90;;;;;;4978714;28;20205;-84
2020/12/28 01:46:49;;;;;;;1.47;1.37;;;3.70;99.90;;;;;;4988322;28;20202;-84
2020/12/28 01:49:16;;;;;;;1.00;1.00;;;3.70;99.90;;;;;;4994798;28;20205;-84
2020/12/28 01:51:44;;;;;;;1.37;1.27;;;3.80;99.90;;;;;;4976567;28;20229;-84
2020/12/28 01:54:12;;;;;;;1.02;1.00;;;4.00;99.90;;;;;;4961326;28;20205;-84
2020/12/28 01:56:46;;;;;;;1.17;1.17;;;3.80;99.90;;;;;;4987053;28;20193;-82
2020/12/28 01:59:17;;;;;;;1.17;1.10;;;3.80;99.90;;;;;;4993473;28;20245;-83
2020/12/28 02:01:50;;;;;;;1.27;1.17;;;3.90;99.90;;;;;;4976671;28;20229;-83
2020/12/28 02:04:19;;;;;;;1.60;1.50;;;3.90;99.90;;;;;;5005913;28;20292;-82
2020/12/28 02:06:55;;;;;;;1.63;1.53;;;4.10;99.90;;;;;;4953404;28;20292;-82
2020/12/28 02:09:24;;;;;;;1.20;1.20;;;4.00;99.90;;;;;;4961016;28;20253;-83
2020/12/28 02:11:51;;;;;;;1.07;1.07;;;4.00;99.90;;;;;;4987820;28;20719;-84
2020/12/28 02:14:18;;;;;;;1.20;1.20;;;4.00;99.90;;;;;;4974006;28;20201;-83
2020/12/28 02:17:07;;;;;;;1.10;1.10;;;4.10;99.90;;;;;;4989091;28;20674;-83
2020/12/28 02:19:38;;;;;;;1.17;1.17;;;4.20;99.90;;;;;;4993353;28;20197;-84
2020/12/28 02:22:07;;;;;;;1.10;1.10;;;4.10;99.90;;;;;;4967623;28;20237;-83
2020/12/28 02:24:43;;;;;;;1.20;1.20;;;4.10;99.90;;;;;;4977436;28;20732;-83
2020/12/28 02:27:11;;;;;;;0.90;0.90;;;4.10;99.90;;;;;;4992841;28;20670;-83
2020/12/28 02:29:38;;;;;;;1.00;1.00;;;4.20;99.90;;;;;;4976904;28;20259;-83
2020/12/28 02:32:07;;;;;;;1.50;1.40;;;4.20;99.90;;;;;;4977511;28;20214;-82
2020/12/28 02:35:06;;;;;;;1.47;1.37;;;4.20;99.90;;;;;;4950919;28;20216;-82
2020/12/28 02:37:42;;;;;;;1.73;1.63;;;4.20;99.90;;;;;;4977007;28;20552;-82
2020/12/28 02:40:09;;;;;;;2.07;1.67;;;4.20;99.90;;;;;;4992206;28;20256;-82
2020/12/28 02:42:47;;;;;;;1.63;1.30;;;4.40;99.90;;;;;;4977082;28;20240;-81
2020/12/28 02:45:32;;;;;;;1.40;1.30;;;4.40;99.90;;;;;;4991544;28;20200;-82
2020/12/28 02:48:17;;;;;;;1.30;1.20;;;4.40;99.90;;;;;;5003957;28;20657;-82
2020/12/28 02:51:12;;;;;;;1.47;1.37;;;4.30;99.90;;;;;;4975926;28;20224;-82
2020/12/28 02:53:59;;;;;;;1.53;1.43;;;4.30;99.90;;;;;;4975262;28;20201;-83
2020/12/28 02:56:44;;;;;;;0.90;0.90;;;4.40;99.90;;;;;;4986040;28;20229;-81
2020/12/28 02:59:29;;;;;;;1.17;1.07;;;4.30;99.90;;;;;;4976029;28;20232;-83
2020/12/28 03:02:14;;;;;;;1.40;1.30;;;4.30;99.90;;;;;;4992580;28;20217;-82
2020/12/28 03:04:59;;;;;;;0.80;0.80;;;4.30;99.90;;;;;;4975548;28;20240;-82
2020/12/28 03:07:45;;;;;;;0.80;0.80;;;4.40;99.90;;;;;;4990699;28;20201;-83
2020/12/28 03:10:32;;;;;;;0.80;0.80;;;4.30;99.90;;;;;;4993255;28;20201;-82
2020/12/28 03:13:17;;;;;;;0.83;0.70;;;4.30;99.90;;;;;;4992581;28;20197;-82
2020/12/28 03:16:02;;;;;;;0.70;0.70;;;4.20;99.90;;;;;;4993667;28;20296;-82
2020/12/28 03:18:47;;;;;;;0.80;0.80;;;4.20;99.90;;;;;;4996504;28;20212;-82
2020/12/28 03:21:32;;;;;;;0.70;0.70;;;4.20;99.90;;;;;;4979345;28;20412;-81
2020/12/28 03:24:17;;;;;;;0.73;0.73;;;4.10;99.90;;;;;;5014225;28;20273;-83
2020/12/28 03:27:03;;;;;;;0.70;0.70;;;4.20;99.90;;;;;;5009620;28;20208;-83
2020/12/28 03:29:48;;;;;;;0.70;0.70;;;4.10;99.90;;;;;;4983648;28;20201;-83
2020/12/28 03:32:33;;;;;;;0.87;0.87;;;4.10;99.90;;;;;;4996339;28;20301;-83
2020/12/28 03:35:29;;;;;;;0.80;0.80;;;4.10;99.90;;;;;;4959465;28;20213;-83
2020/12/28 03:38:15;;;;;;;0.67;0.67;;;4.10;99.90;;;;;;4976893;28;20225;-83
2020/12/28 03:41:00;;;;;;;1.13;1.13;;;4.10;99.90;;;;;;4996613;28;20221;-83
2020/12/28 03:43:46;;;;;;;0.90;0.90;;;4.10;99.90;;;;;;5014023;28;20209;-83
2020/12/28 03:46:31;;;;;;;0.90;0.90;;;4.10;99.90;;;;;;4997932;28;20678;-83
2020/12/28 03:49:17;;;;;;;0.67;0.67;;;4.10;99.90;;;;;;4998047;28;20263;-83
2020/12/28 03:52:03;;;;;;;0.67;0.67;;;4.20;99.90;;;;;;4998445;28;20221;-83
2020/12/28 03:54:48;;;;;;;1.20;1.20;;;4.10;99.90;;;;;;4998672;28;20265;-83
2020/12/28 03:57:34;;;;;;;0.70;0.70;;;4.00;99.90;;;;;;4996903;28;20205;-83
2020/12/28 04:00:20;;;;;;;1.00;1.00;;;4.00;99.90;;;;;;4997359;28;20525;-83
2020/12/28 04:03:06;;;;;;;1.83;0.80;;;4.00;99.90;;;;;;4979571;28;20315;-83
2020/12/28 04:05:51;;;;;;;0.77;0.77;;;4.00;99.90;;;;;;4997782;28;20231;-83
2020/12/28 04:08:36;;;;;;;1.53;0.80;;;4.00;99.90;;;;;;4995840;28;20216;-83
2020/12/28 04:11:21;;;;;;;0.87;0.87;;;4.10;99.90;;;;;;4995663;28;20236;-83
2020/12/28 04:14:11;;;;;;;0.70;0.70;;;4.00;99.90;;;;;;4995157;28;20231;-82
2020/12/28 04:16:38;;;;;;;1.00;1.00;;;4.10;99.90;;;;;;4994085;28;20265;-82
2020/12/28 04:19:05;;;;;;;0.97;0.70;;;4.10;99.90;;;;;;4980022;28;20205;-83
2020/12/28 04:21:32;;;;;;;0.83;0.83;;;4.10;99.90;;;;;;4997718;28;20228;-82
2020/12/28 04:23:58;;;;;;;0.90;0.90;;;4.00;99.90;;;;;;4980715;28;20705;-83
2020/12/28 04:26:25;;;;;;;0.83;0.83;;;4.10;99.90;;;;;;4983282;28;20205;-82
2020/12/28 04:28:51;;;;;;;0.80;0.80;;;4.10;99.90;;;;;;4996873;28;20194;-83
2020/12/28 04:31:18;;;;;;;0.90;0.90;;;4.00;99.90;;;;;;4997942;28;20266;-83
2020/12/28 04:33:46;;;;;;;1.10;1.00;;;4.10;99.90;;;;;;4997851;28;20212;-83
2020/12/28 04:36:13;;;;;;;1.10;1.00;;;4.10;99.90;;;;;;4978484;28;20206;-83
2020/12/28 04:38:39;;;;;;;1.30;1.20;;;4.10;99.90;;;;;;4997400;28;20212;-82
2020/12/28 04:41:06;;;;;;;0.80;0.80;;;4.20;99.90;;;;;;5000296;28;20284;-83
2020/12/28 04:43:33;;;;;;;1.40;1.30;;;4.20;99.90;;;;;;5008158;28;20224;-84
2020/12/28 04:46:03;;;;;;;0.80;0.80;;;4.30;99.90;;;;;;5018826;28;20201;-84
2020/12/28 04:48:32;;;;;;;0.97;0.97;;;4.00;99.90;;;;;;4988485;28;20176;-85
2020/12/28 04:51:00;;;;;;;2.10;1.00;;;4.30;99.90;;;;;;5018623;28;20177;-84
2020/12/28 04:53:29;;;;;;;1.07;1.07;;;4.30;99.90;;;;;;5018069;28;20210;-82
2020/12/28 04:55:56;;;;;;;1.00;1.00;;;4.30;99.90;;;;;;5001978;28;20205;-83
2020/12/28 04:58:23;;;;;;;1.03;1.03;;;4.20;99.90;;;;;;5017061;28;20185;-82
2020/12/28 05:00:57;;;;;;;0.93;0.93;;;4.30;99.90;;;;;;5012213;28;20270;-83
2020/12/28 05:03:24;;;;;;;1.10;1.10;;;4.20;99.90;;;;;;5007526;28;20289;-83
2020/12/28 05:05:51;;;;;;;1.07;1.07;;;4.30;99.90;;;;;;5001073;28;20696;-83
2020/12/28 05:08:19;;;;;;;1.20;1.10;;;4.30;99.90;;;;;;5001922;28;20570;-82
2020/12/28 05:10:46;;;;;;;1.17;1.10;;;4.30;99.90;;;;;;5001738;28;20208;-82
2020/12/28 05:13:17;;;;;;;1.23;1.23;;;4.30;99.90;;;;;;5000535;28;20209;-82
2020/12/28 05:15:47;;;;;;;1.97;1.83;;;4.20;99.90;;;;;;5001873;28;20251;-82
2020/12/28 05:18:15;;;;;;;1.53;1.43;;;4.20;99.90;;;;;;4983326;28;20237;-82
2020/12/28 05:20:46;;;;;;;1.30;1.17;;;4.20;99.90;;;;;;5000861;28;20204;-82
2020/12/28 05:23:13;;;;;;;1.40;1.33;;;4.10;99.90;;;;;;4982829;28;20830;-82
2020/12/28 05:25:43;;;;;;;1.20;1.20;;;4.20;99.90;;;;;;5001061;28;20231;-82
2020/12/28 05:28:14;;;;;;;1.40;1.30;;;4.00;99.90;;;;;;4966317;28;20209;-82
2020/12/28 05:30:43;;;;;;;1.40;1.30;;;3.90;99.90;;;;;;5001071;28;20204;-82
2020/12/28 05:33:10;;;;;;;1.83;1.73;;;3.90;99.90;;;;;;4994265;28;20752;-82
2020/12/28 05:35:37;;;;;;;1.60;1.50;;;4.00;99.90;;;;;;4994499;28;20841;-82
2020/12/28 05:38:04;;;;;;;1.50;1.40;;;4.10;99.90;;;;;;4964404;28;20203;-82
2020/12/28 05:40:33;;;;;;;1.87;1.77;;;4.10;99.90;;;;;;4993382;28;20201;-81
2020/12/28 05:43:00;;;;;;;2.77;1.67;;;4.00;99.90;;;;;;5000921;28;20225;-82
2020/12/28 05:45:27;;;;;;;2.13;2.00;;;4.10;99.90;;;;;;5002534;28;20205;-82
2020/12/28 05:47:56;;;;;;;1.93;1.83;;;4.20;99.90;;;;;;4999811;28;20264;-81
2020/12/28 05:50:24;;;;;;;1.97;1.87;;;4.20;99.90;;;;;;4999839;28;20227;-82
2020/12/28 05:52:56;;;;;;;2.27;2.13;;;4.20;99.90;;;;;;4997616;28;20273;-82
2020/12/28 05:55:25;;;;;;;3.17;2.63;;;4.20;99.90;;;;;;4998825;28;20234;-82
2020/12/28 05:57:52;;;;;;;3.30;2.20;;;4.30;99.90;;;;;;4999518;28;20193;-82
2020/12/28 06:00:19;;;;;;;3.03;2.60;;;4.30;99.90;;;;;;5000931;28;20265;-82
2020/12/28 06:02:46;;;;;;;2.77;2.47;;;4.30;99.90;;;;;;4995994;28;20220;-82
2020/12/28 06:05:14;;;;;;;3.10;2.33;;;4.40;99.90;;;;;;4960859;28;20209;-83
2020/12/28 06:07:42;;;;;;;2.40;2.20;;;4.40;99.90;;;;;;4994952;28;20201;-82
2020/12/28 06:10:09;;;;;;;3.20;1.73;;;4.40;99.90;;;;;;4999543;28;20252;-82
2020/12/28 06:12:36;;;;;;;1.63;1.52;;;4.30;99.90;;;;;;4981422;28;20217;-82
2020/12/28 06:15:03;;;;;;;1.93;1.77;;;4.20;99.90;;;;;;4981932;28;20205;-82
2020/12/28 06:17:36;;;;;;;1.77;1.67;;;4.20;99.90;;;;;;4997535;28;20207;-82
2020/12/28 06:20:04;;;;;;;2.35;2.03;;;4.20;99.90;;;;;;4991462;28;20193;-82
2020/12/28 06:22:32;;;;;;;1.47;1.40;;;4.40;99.90;;;;;;4999468;28;20224;-82
2020/12/28 06:25:00;;;;;;;1.17;1.17;;;4.30;99.90;;;;;;4998717;28;20219;-82
2020/12/28 06:27:29;;;;;;;1.77;1.67;;;4.30;99.90;;;;;;4989301;28;20551;-82
2020/12/28 06:30:07;;;;;;;1.80;1.70;;;4.20;99.90;;;;;;4972483;28;20212;-82
2020/12/28 06:32:35;;;;;;;1.90;1.80;;;4.10;99.90;;;;;;4998982;28;20351;-82
2020/12/28 06:35:04;;;;;;;3.83;2.45;;;4.10;99.90;;;;;;4997342;28;20205;-80
2020/12/28 06:37:38;;;;;;;1.80;1.70;;;4.00;99.90;;;;;;4994567;28;20201;-82
2020/12/28 06:40:05;;;;;;;2.30;2.10;;;4.20;99.90;;;;;;4964857;28;20734;-82
2020/12/28 06:42:31;;;;;;;3.00;2.73;;;4.20;99.90;;;;;;4998124;28;20217;-82
2020/12/28 06:45:09;;;;;;;1.97;1.83;;;4.20;99.90;;;;;;4996731;28;20232;-82
2020/12/28 06:47:36;;;;;;;2.40;2.20;;;4.20;99.90;;;;;;4978296;28;20309;-82
2020/12/28 06:50:03;;;;;;;2.23;2.03;;;4.30;99.90;;;;;;4998461;28;20215;-82
2020/12/28 06:52:30;;;;;;;2.17;1.93;;;4.20;99.90;;;;;;4997203;28;20294;-82
2020/12/28 06:55:06;;;;;;;2.13;2.03;;;4.30;99.90;;;;;;4981563;28;20284;-82
2020/12/28 06:57:32;;;;;;;2.30;2.20;;;4.40;99.90;;;;;;4999189;28;20188;-82
2020/12/28 06:59:59;;;;;;;2.30;2.10;;;4.20;99.90;;;;;;5000370;28;20325;-82
2020/12/28 07:02:26;;;;;;;2.90;1.97;;;4.20;99.90;;;;;;4999332;28;20232;-82
2020/12/28 07:04:53;;;;;;;3.03;2.23;;;4.20;99.90;;;;;;5013592;28;20219;-82
2020/12/28 07:07:20;;;;;;;2.03;1.90;;;4.30;99.90;;;;;;5006642;28;20743;-82
2020/12/28 07:09:47;;;;;;;2.87;2.57;;;4.20;99.90;;;;;;4981382;28;20233;-82
2020/12/28 07:12:14;;;;;;;2.33;2.20;;;4.30;99.90;;;;;;4983252;28;20433;-82
2020/12/28 07:14:41;;;;;;;2.10;1.90;;;4.20;99.90;;;;;;4999505;28;20287;-82
2020/12/28 07:17:07;;;;;;;2.00;1.90;;;4.20;99.90;;;;;;5000852;28;20227;-82
2020/12/28 07:19:34;;;;;;;2.33;2.13;;;4.10;99.90;;;;;;5000033;28;20221;-83
2020/12/28 07:22:02;;;;;;;2.20;1.70;;;4.10;99.90;;;;;;4998886;28;20252;-82
2020/12/28 07:24:28;;;;;;;2.07;1.93;;;4.10;99.90;;;;;;5000663;28;20551;-82
2020/12/28 07:26:55;;;;;;;2.40;2.20;;;4.10;99.90;;;;;;5000044;28;20211;-82
2020/12/28 07:29:22;;;;;;;2.83;1.97;;;4.20;99.90;;;;;;5001157;28;20201;-82
2020/12/28 07:31:49;;;;;;;3.08;2.67;;;4.20;99.90;;;;;;5002032;28;20308;-82
2020/12/28 07:34:17;;;;;;;3.10;1.90;;;4.30;99.90;;;;;;5002877;28;20225;-82
2020/12/28 07:36:46;;;;;;;2.87;2.10;;;4.20;99.90;;;;;;5001966;28;20606;-82
2020/12/28 07:39:15;;;;;;;2.17;2.07;;;4.20;99.90;;;;;;5002660;28;20272;-82
2020/12/28 07:41:42;;;;;;;2.40;2.20;;;4.10;99.90;;;;;;5003535;28;20232;-82
2020/12/28 07:44:13;;;;;;;2.87;1.97;;;4.00;99.90;;;;;;5005600;28;20213;-82
2020/12/28 07:47:04;;;;;;;2.50;2.30;;;4.00;99.90;;;;;;5007987;28;20198;-83
2020/12/28 07:49:36;;;;;;;2.97;1.90;;;4.00;99.90;;;;;;4958896;28;20197;-81
2020/12/28 07:52:09;;;;;;;2.30;2.10;;;4.00;99.90;;;;;;4979970;28;20316;-83
2020/12/28 07:54:44;;;;;;;2.43;2.23;;;4.00;99.90;;;;;;4997734;28;20194;-82
2020/12/28 07:57:16;;;;;;;1.93;1.83;;;4.00;99.90;;;;;;4997107;28;20208;-83
2020/12/28 08:00:05;;;;;;;2.63;2.43;;;4.10;99.90;;;;;;4997372;28;20189;-83
2020/12/28 08:02:51;;;;;;;1.77;1.67;;;4.20;99.90;;;;;;4994886;28;20228;-82
2020/12/28 08:05:19;;;;;;;1.87;1.77;;;4.20;99.90;;;;;;4997849;28;20233;-83
2020/12/28 08:07:46;;;;;;;1.70;1.60;;;4.20;99.90;;;;;;4998374;28;20218;-82
2020/12/28 08:10:14;;;;;;;2.80;2.03;;;4.20;99.90;;;;;;5000706;28;20205;-82
2020/12/28 08:12:42;;;;;;;2.00;1.90;;;4.20;99.90;;;;;;5000839;28;20228;-82
2020/12/28 08:15:09;;;;;;;1.80;1.70;;;4.10;99.90;;;;;;5001470;28;20201;-83
2020/12/28 08:17:35;;;;;;;2.70;2.50;;;4.10;99.90;;;;;;5002561;28;20200;-83
2020/12/28 08:20:07;;;;;;;4.90;4.03;;;4.00;99.90;;;;;;5001219;28;20220;-83
2020/12/28 08:22:33;;;;;;;2.87;2.67;;;4.10;99.90;;;;;;4972290;28;20300;-82
2020/12/28 08:25:01;;;;;;;2.60;2.43;;;4.30;99.90;;;;;;4986435;28;20244;-82
2020/12/28 08:27:30;;;;;;;4.17;3.77;;;4.40;99.90;;;;;;5004179;28;20251;-82
2020/12/28 08:29:57;;;;;;;10.10;6.63;;;4.60;99.90;;;;;;5003629;28;20201;-82
2020/12/28 08:32:28;;;;;;;3.90;2.60;;;4.70;99.90;;;;;;5003903;28;20284;-82
2020/12/28 08:34:56;;;;;;;2.20;2.00;;;4.70;99.90;;;;;;5005336;28;20192;-83
2020/12/28 08:37:23;;;;;;;2.60;2.40;;;4.80;99.90;;;;;;5005381;28;20236;-82
2020/12/28 08:39:49;;;;;;;2.00;1.90;;;4.80;99.90;;;;;;5014624;28;20227;-79
2020/12/28 08:42:26;;;;;;;2.20;2.03;;;4.90;99.90;;;;;;4977503;28;20372;-78
2020/12/28 08:44:54;;;;;;;2.63;2.43;;;5.10;99.90;;;;;;4979188;28;20200;-80
2020/12/28 08:47:23;;;;;;;4.40;2.58;;;5.10;99.90;;;;;;4998678;28;20204;-79
2020/12/28 08:49:49;;;;;;;3.67;2.47;;;4.90;99.90;;;;;;5000258;28;20209;-79
2020/12/28 08:52:17;;;;;;;3.77;3.10;;;4.70;99.90;;;;;;5007060;28;20212;-80
2020/12/28 08:54:54;;;;;;;3.20;2.90;;;4.70;99.90;;;;;;5017509;28;20228;-79
2020/12/28 08:57:22;;;;;;;7.07;2.70;;;4.70;99.90;;;;;;4995763;28;20189;-80
2020/12/28 08:59:49;;;;;;;2.43;2.27;;;4.80;99.90;;;;;;5018024;28;20269;-80
2020/12/28 09:02:18;;;;;;;2.97;2.10;;;4.90;99.90;;;;;;5016533;28;20224;-80
2020/12/28 09:04:45;;;;;;;1.90;1.80;;;5.20;99.90;;;;;;4999389;28;20248;-81
2020/12/28 09:07:13;;;;;;;1.97;1.87;;;5.10;99.90;;;;;;5008281;28;20237;-80
2020/12/28 09:09:40;;;;;;;1.73;1.63;;;5.20;99.90;;;;;;5007031;28;20201;-80
2020/12/28 09:12:07;;;;;;;1.85;1.75;;;5.20;99.90;;;;;;5005913;28;20289;-81
2020/12/28 09:14:34;;;;;;;2.10;1.90;;;5.10;99.90;;;;;;5004831;28;20197;-80
2020/12/28 09:17:02;;;;;;;3.27;2.40;;;5.10;99.90;;;;;;4990691;28;20221;-80
2020/12/28 09:19:31;;;;;;;2.90;2.60;;;5.20;99.90;;;;;;4992226;28;20292;-81
2020/12/28 09:21:58;;;;;;;2.00;1.90;;;5.20;99.90;;;;;;5007834;28;20221;-81
2020/12/28 09:24:25;;;;;;;3.27;2.70;;;5.20;99.90;;;;;;4987189;28;20225;-78
2020/12/28 09:26:52;;;;;;;2.87;2.63;;;5.60;99.90;;;;;;5004700;28;20203;-79
2020/12/28 09:29:18;;;;;;;2.57;2.37;;;6.00;99.90;;;;;;5008089;28;20197;-80
2020/12/28 09:31:45;;;;;;;3.17;2.60;;;6.10;99.90;;;;;;5006484;28;20213;-79
2020/12/28 09:34:13;;;;;;;2.43;2.23;;;5.80;99.90;;;;;;5002805;28;20255;-79
2020/12/28 09:36:41;;;;;;;5.03;3.43;;;5.90;99.90;;;;;;5004257;28;20200;-80
2020/12/28 09:39:09;;;;;;;3.17;2.80;;;6.00;99.90;;;;;;5006114;28;20201;-79
2020/12/28 09:41:37;;;;;;;2.20;2.00;;;6.10;99.90;;;;;;5004694;28;20220;-79
2020/12/28 09:44:06;;;;;;;2.50;2.30;;;5.70;99.90;;;;;;5004087;28;20221;-79
2020/12/28 09:46:33;;;;;;;2.40;2.23;;;5.60;99.90;;;;;;5005738;28;20198;-79
2020/12/28 09:49:00;;;;;;;3.47;2.17;;;5.50;99.90;;;;;;4986003;28;20204;-80
2020/12/28 09:51:26;;;;;;;2.13;1.93;;;5.80;99.90;;;;;;5002618;28;20233;-80
2020/12/28 09:53:57;;;;;;;2.20;2.00;;;5.50;99.90;;;;;;4984864;28;20260;-79
2020/12/28 09:56:26;;;;;;;2.90;2.20;;;5.60;99.90;;;;;;4998427;28;20291;-80
2020/12/28 09:58:52;;;;;;;3.00;2.80;;;5.60;99.90;;;;;;4981550;28;20225;-80
2020/12/28 10:01:19;;;;;;;2.23;2.10;;;5.80;99.90;;;;;;5007830;28;20231;-81
2020/12/28 10:03:46;;;;;;;1.90;1.80;;;5.90;99.90;;;;;;5006406;28;20239;-83
2020/12/28 10:06:34;;;;;;;1.73;1.60;;;6.20;99.90;;;;;;4990897;28;20233;-79
2020/12/28 10:09:04;;;;;;;1.80;1.70;;;6.70;99.90;;;;;;4995524;28;20248;-81
2020/12/28 10:11:32;;;;;;;1.53;1.50;;;6.80;99.90;;;;;;4985550;28;20217;-82
2020/12/28 10:13:59;;;;;;;2.00;1.67;;;6.90;99.90;;;;;;4975529;28;20198;-80
2020/12/28 10:16:27;;;;;;;1.40;1.30;;;6.90;99.90;;;;;;4993216;28;20241;-79
2020/12/28 10:18:56;;;;;;;1.63;1.37;;;6.90;99.90;;;;;;4989863;28;20288;-79
2020/12/28 10:21:24;;;;;;;1.70;1.60;;;6.80;99.90;;;;;;4981787;28;20221;-79
2020/12/28 10:23:50;;;;;;;1.47;1.37;;;6.80;99.90;;;;;;4995959;28;20221;-78
2020/12/28 10:26:19;;;;;;;1.60;1.50;;;6.80;99.90;;;;;;4996358;28;20206;-79
2020/12/28 10:28:46;;;;;;;3.50;1.50;;;7.40;99.90;;;;;;4994514;28;20232;-82
2020/12/28 10:31:15;;;;;;;1.50;1.40;;;8.00;99.90;;;;;;4995023;28;20585;-85
2020/12/28 10:33:47;;;;;;;1.47;1.30;;;7.90;99.90;;;;;;4993854;28;20223;-85
2020/12/28 10:36:17;;;;;;;1.63;1.47;;;8.30;99.90;;;;;;4993195;28;20209;-86
2020/12/28 10:38:59;;;;;;;1.33;1.30;;;8.80;99.90;;;;;;4972499;28;20198;-88
2020/12/28 10:41:41;;;;;;;0.93;0.93;;;9.40;99.90;;;;;;4992616;28;20219;-84
2020/12/28 10:44:08;;;;;;;1.27;0.75;;;10.10;99.90;;;;;;4977152;28;20213;-86
2020/12/28 10:46:43;;;;;;;1.00;1.00;;;9.70;99.90;;;;;;4979100;28;20208;-85
2020/12/28 10:49:11;;;;;;;0.93;0.80;;;9.80;99.90;;;;;;4975386;28;20188;-86
2020/12/28 10:51:41;;;;;;;0.90;0.90;;;9.70;99.90;;;;;;4997209;28;20526;-86
2020/12/28 10:54:08;;;;;;;0.65;0.65;;;10.10;99.90;;;;;;4977086;28;20199;-85
2020/12/28 10:56:40;;;;;;;1.20;1.08;;;10.60;99.90;;;;;;4978225;28;20196;-84
2020/12/28 10:59:07;;;;;;;0.68;0.65;;;11.40;99.90;;;;;;4988811;28;20208;-84
2020/12/28 11:01:35;;;;;;;1.30;0.95;;;12.20;99.90;;;;;;4996358;28;20217;-86
2020/12/28 11:04:11;;;;;;;0.70;0.70;;;12.60;99.90;;;;;;4980498;28;20220;-87
2020/12/28 11:06:45;;;;;;;0.90;0.88;;;12.90;99.90;;;;;;4976291;28;20293;-87
2020/12/28 11:09:18;;;;;;;0.80;0.80;;;13.00;99.90;;;;;;4994286;28;20208;-87
2020/12/28 11:11:51;;;;;;;0.60;0.60;;;11.90;99.90;;;;;;4990625;28;20218;-85
2020/12/28 11:14:18;;;;;;;0.90;0.90;;;11.30;99.90;;;;;;4981844;28;20216;-86
2020/12/28 11:17:03;;;;;;;2.08;0.70;;;10.40;99.90;;;;;;4979270;28;20223;-84
2020/12/28 11:19:34;;;;;;;1.15;0.90;;;10.40;99.90;;;;;;4993372;28;20470;-86
2020/12/28 11:22:01;;;;;;;0.80;0.80;;;10.00;99.90;;;;;;4978416;28;20283;-85
2020/12/28 11:24:27;;;;;;;0.80;0.80;;;9.90;99.90;;;;;;4996708;28;20749;-86
2020/12/28 11:26:55;;;;;;;0.80;0.80;;;9.40;99.90;;;;;;4977338;28;20287;-84
2020/12/28 11:29:22;;;;;;;1.23;1.00;;;8.60;99.90;;;;;;4991041;28;20197;-84
2020/12/28 11:31:49;;;;;;;1.20;1.10;;;8.50;99.90;;;;;;4975206;28;20339;-82
2020/12/28 11:34:16;;;;;;;0.70;0.70;;;8.00;99.90;;;;;;4994161;28;20181;-83
2020/12/28 11:36:43;;;;;;;1.00;1.00;;;8.40;99.90;;;;;;4994445;28;20207;-84
2020/12/28 11:39:15;;;;;;;1.10;1.10;;;8.10;99.90;;;;;;4969277;28;20252;-83
2020/12/28 11:41:41;;;;;;;1.07;1.07;;;7.60;99.90;;;;;;4984496;28;20221;-82
2020/12/28 11:44:14;;;;;;;1.30;1.20;;;7.30;99.90;;;;;;4993171;28;20296;-84
2020/12/28 11:46:43;;;;;;;0.90;0.90;;;7.00;99.90;;;;;;4990397;28;20228;-84
2020/12/28 11:49:12;;;;;;;1.00;0.90;;;6.90;99.90;;;;;;4977714;28;20205;-84
2020/12/28 11:51:54;;;;;;;1.08;1.02;;;6.80;99.90;;;;;;4992749;28;20233;-86
2020/12/28 11:54:22;;;;;;;1.25;1.25;;;6.90;99.90;;;;;;4995810;28;20194;-85
2020/12/28 11:56:53;;;;;;;1.40;1.30;;;6.80;99.90;;;;;;4994417;28;20288;-85
2020/12/28 11:59:33;;;;;;;0.93;0.93;;;7.10;99.90;;;;;;4996279;28;20189;-88
2020/12/28 12:02:01;;;;;;;1.37;1.27;;;7.60;99.90;;;;;;4995938;28;20676;-87
2020/12/28 12:07:10;;;;;;;1.17;1.13;;;7.80;99.90;;;;;;4974141;28;20686;-86
2020/12/28 12:09:39;;;;;;;1.77;1.67;;;7.60;99.90;;;;;;4975622;28;20296;-86
2020/12/28 12:12:10;;;;;;;1.60;1.50;;;7.50;99.90;;;;;;4985111;28;20337;-86
2020/12/28 12:14:40;;;;;;;1.33;1.23;;;7.20;99.90;;;;;;4955621;28;20205;-87
2020/12/28 12:17:08;;;;;;;1.30;1.20;;;6.90;99.90;;;;;;4992119;28;20450;-86
2020/12/28 12:19:35;;;;;;;1.07;1.07;;;6.80;99.90;;;;;;4989379;28;20203;-86
2020/12/28 12:22:05;;;;;;;1.50;1.40;;;6.40;99.90;;;;;;4943562;28;20279;-86
2020/12/28 12:24:32;;;;;;;2.23;1.63;;;6.60;99.90;;;;;;4996667;28;20213;-86
2020/12/28 12:27:01;;;;;;;1.37;1.27;;;6.70;99.90;;;;;;4979961;28;20411;-85
2020/12/28 12:29:31;;;;;;;1.50;1.13;;;7.10;99.90;;;;;;4979533;28;20261;-86
2020/12/28 12:31:59;;;;;;;1.47;1.37;;;7.00;99.90;;;;;;4995004;28;20227;-86
2020/12/28 12:34:26;;;;;;;1.50;1.40;;;6.90;99.90;;;;;;4996509;28;20209;-85
2020/12/28 12:36:52;;;;;;;1.10;1.10;;;6.90;99.90;;;;;;4980246;28;20200;-85
2020/12/28 12:39:19;;;;;;;1.90;0.90;;;7.00;99.90;;;;;;4976995;28;20212;-85
2020/12/28 12:41:47;;;;;;;1.07;0.97;;;7.10;99.90;;;;;;4975842;28;20705;-86
2020/12/28 12:44:14;;;;;;;1.55;1.45;;;7.30;99.90;;;;;;4975940;28;20225;-88
2020/12/28 12:46:40;;;;;;;1.30;1.20;;;7.00;99.90;;;;;;4986267;28;20237;-87
2020/12/28 12:49:08;;;;;;;1.10;1.10;;;7.10;99.90;;;;;;4994174;28;20869;-85
2020/12/28 12:51:36;;;;;;;1.20;1.10;;;7.10;99.90;;;;;;5007537;28;20213;-88
2020/12/28 12:54:02;;;;;;;2.20;1.23;;;7.20;99.90;;;;;;5002505;28;20202;-86
2020/12/28 12:56:29;;;;;;;1.57;1.50;;;7.20;99.90;;;;;;4994854;28;20198;-87
2020/12/28 12:58:55;;;;;;;1.47;1.33;;;7.50;99.90;;;;;;5012080;28;20181;-91
2020/12/28 13:01:22;;;;;;;1.40;1.37;;;7.80;99.90;;;;;;5014021;28;20211;-87
2020/12/28 13:03:48;;;;;;;1.80;1.70;;;8.00;99.90;;;;;;4988342;28;20205;-85
2020/12/28 13:06:16;;;;;;;1.40;1.20;;;7.60;99.90;;;;;;5008392;28;20190;-85
2020/12/28 13:08:43;;;;;;;1.50;1.37;;;7.10;99.90;;;;;;5016549;28;20211;-85
2020/12/28 13:11:09;;;;;;;1.17;1.08;;;6.90;99.90;;;;;;5010512;28;20214;-85
2020/12/28 13:13:36;;;;;;;1.23;1.23;;;6.70;99.90;;;;;;4987783;28;20206;-85
2020/12/28 13:16:04;;;;;;;1.17;1.13;;;6.60;99.90;;;;;;4993154;28;20202;-85
2020/12/28 13:18:32;;;;;;;1.53;1.43;;;6.50;99.90;;;;;;4991511;28;20212;-84
2020/12/28 13:20:59;;;;;;;2.17;1.97;;;6.30;99.90;;;;;;4969351;28;20210;-82